createdAt,value
2017-08-01T00:00:52.970Z,1017.87
2017-08-01T00:01:54.785Z,1017.88
2017-08-01T00:02:56.619Z,1017.89
2017-08-01T00:03:58.486Z,1017.84
2017-08-01T00:05:00.362Z,1017.81
2017-08-01T00:06:02.257Z,1017.77
2017-08-01T00:07:16.425Z,1017.77
2017-08-01T00:08:18.297Z,1017.76
2017-08-01T00:09:20.194Z,1017.74
2017-08-01T00:10:22.070Z,1017.78
2017-08-01T00:11:23.901Z,1017.77
2017-08-01T00:12:25.714Z,1017.74
2017-08-01T00:13:27.606Z,1017.75
2017-08-01T00:14:29.483Z,1017.75
2017-08-01T00:15:31.346Z,1017.77
2017-08-01T00:16:45.492Z,1017.75
2017-08-01T00:17:47.359Z,1017.74
2017-08-01T00:18:49.238Z,1017.77
2017-08-01T00:19:51.135Z,1017.76
2017-08-01T00:20:52.971Z,1017.74
2017-08-01T00:21:54.808Z,1017.74
2017-08-01T00:22:56.717Z,1017.79
2017-08-01T00:23:58.600Z,1017.78
2017-08-01T00:25:00.470Z,1017.79
2017-08-01T00:26:14.614Z,1017.75
2017-08-01T00:27:16.491Z,1017.75
2017-08-01T00:28:18.379Z,1017.75
2017-08-01T00:29:20.257Z,1017.77
2017-08-01T00:30:22.069Z,1017.72
2017-08-01T00:31:23.875Z,1017.71
2017-08-01T00:32:25.746Z,1017.71
2017-08-01T00:33:27.620Z,1017.75
2017-08-01T00:34:29.478Z,1017.73
2017-08-01T00:35:43.622Z,1017.74
2017-08-01T00:36:45.492Z,1017.70
2017-08-01T00:37:47.368Z,1017.69
2017-08-01T00:38:49.266Z,1017.63
2017-08-01T00:39:51.097Z,1017.67
2017-08-01T00:40:52.907Z,1017.69
2017-08-01T00:41:54.781Z,1017.68
2017-08-01T00:42:56.650Z,1017.68
2017-08-01T00:43:58.518Z,1017.73
2017-08-01T00:45:12.665Z,1017.67
2017-08-01T00:46:14.534Z,1017.67
2017-08-01T00:47:16.405Z,1017.66
2017-08-01T00:48:18.278Z,1017.70
2017-08-01T00:49:20.108Z,1017.67
2017-08-01T00:50:21.920Z,1017.66
2017-08-01T00:51:23.789Z,1017.71
2017-08-01T00:52:25.661Z,1017.66
2017-08-01T00:53:27.559Z,1017.69
2017-08-01T00:54:41.727Z,1017.69
2017-08-01T00:55:43.620Z,1017.68
2017-08-01T00:56:45.494Z,1017.71
2017-08-01T00:57:47.388Z,1017.72
2017-08-01T00:58:49.204Z,1017.64
2017-08-01T00:59:51.042Z,1017.63
2017-08-01T01:00:52.937Z,1017.65
2017-08-01T01:01:54.830Z,1017.59
2017-08-01T01:02:56.701Z,1017.60
2017-08-01T01:04:10.898Z,1017.58
2017-08-01T01:05:12.841Z,1017.55
2017-08-01T01:06:14.746Z,1017.55
2017-08-01T01:07:16.840Z,1017.53
2017-08-01T01:08:18.676Z,1017.48
2017-08-01T01:09:20.511Z,1017.48
2017-08-01T01:10:22.401Z,1017.52
2017-08-01T01:11:24.274Z,1017.54
2017-08-01T01:12:26.161Z,1017.53
2017-08-01T01:13:40.311Z,1017.46
2017-08-01T01:14:42.208Z,1017.46
2017-08-01T01:15:44.083Z,1017.49
2017-08-01T01:16:45.979Z,1017.44
2017-08-01T01:17:47.816Z,1017.41
2017-08-01T01:18:49.652Z,1017.38
2017-08-01T01:19:51.545Z,1017.29
2017-08-01T01:20:53.441Z,1017.34
2017-08-01T01:21:55.309Z,1017.29
2017-08-01T01:23:09.455Z,1017.27
2017-08-01T01:24:11.347Z,1017.20
2017-08-01T01:25:13.222Z,1017.21
2017-08-01T01:26:15.098Z,1017.14
2017-08-01T01:27:16.932Z,1017.15
2017-08-01T01:28:18.764Z,1017.08
2017-08-01T01:29:20.635Z,1017.13
2017-08-01T01:30:22.514Z,1017.17
2017-08-01T01:31:24.404Z,1017.13
2017-08-01T01:32:38.544Z,1017.19
2017-08-01T01:33:40.417Z,1017.16
2017-08-01T01:34:42.316Z,1017.09
2017-08-01T01:35:44.210Z,1017.13
2017-08-01T01:36:46.020Z,1017.17
2017-08-01T01:37:47.826Z,1017.11
2017-08-01T01:38:49.722Z,1017.16
2017-08-01T01:39:51.627Z,1017.14
2017-08-01T01:40:53.523Z,1017.11
2017-08-01T01:42:07.667Z,1017.17
2017-08-01T01:43:09.563Z,1017.16
2017-08-01T01:44:11.459Z,1017.15
2017-08-01T01:45:13.358Z,1017.21
2017-08-01T01:46:15.191Z,1017.19
2017-08-01T01:47:17.003Z,1017.19
2017-08-01T01:48:18.896Z,1017.20
2017-08-01T01:49:20.771Z,1017.19
2017-08-01T01:50:22.659Z,1017.15
2017-08-01T01:51:36.802Z,1017.13
2017-08-01T01:52:38.691Z,1017.13
2017-08-01T01:53:40.586Z,1017.14
2017-08-01T01:54:42.479Z,1017.13
2017-08-01T01:55:44.313Z,1017.14
2017-08-01T01:56:46.136Z,1017.16
2017-08-01T01:57:48.011Z,1017.15
2017-08-01T01:58:49.901Z,1017.10
2017-08-01T01:59:51.777Z,1017.10
2017-08-01T02:01:05.989Z,1017.13
2017-08-01T02:02:07.857Z,1017.17
2017-08-01T02:03:09.745Z,1017.14
2017-08-01T02:04:11.620Z,1017.14
2017-08-01T02:05:13.448Z,1017.16
2017-08-01T02:06:15.254Z,1017.18
2017-08-01T02:07:17.142Z,1017.19
2017-08-01T02:08:19.016Z,1017.16
2017-08-01T02:09:20.912Z,1017.17
2017-08-01T02:10:35.075Z,1017.13
2017-08-01T02:11:36.944Z,1017.13
2017-08-01T02:12:38.820Z,1017.15
2017-08-01T02:13:40.682Z,1017.15
2017-08-01T02:14:42.511Z,1017.15
2017-08-01T02:15:44.319Z,1017.17
2017-08-01T02:16:46.207Z,1017.17
2017-08-01T02:17:48.082Z,1017.10
2017-08-01T02:18:49.977Z,1017.14
2017-08-01T02:20:04.134Z,1017.16
2017-08-01T02:21:06.008Z,1017.25
2017-08-01T02:22:07.878Z,1017.24
2017-08-01T02:23:09.768Z,1017.24
2017-08-01T02:24:11.576Z,1017.23
2017-08-01T02:25:13.392Z,1017.23
2017-08-01T02:26:15.285Z,1017.19
2017-08-01T02:27:17.176Z,1017.20
2017-08-01T02:28:19.047Z,1017.20
2017-08-01T02:29:33.189Z,1017.19
2017-08-01T02:30:35.071Z,1017.15
2017-08-01T02:31:36.943Z,1017.17
2017-08-01T02:32:38.814Z,1017.20
2017-08-01T02:33:40.645Z,1017.15
2017-08-01T02:34:42.473Z,1017.19
2017-08-01T02:35:44.344Z,1017.16
2017-08-01T02:36:46.221Z,1017.14
2017-08-01T02:37:48.118Z,1017.10
2017-08-01T02:39:02.282Z,1017.10
2017-08-01T02:40:04.173Z,1017.07
2017-08-01T02:41:06.069Z,1017.08
2017-08-01T02:42:07.962Z,1017.08
2017-08-01T02:43:09.771Z,1017.04
2017-08-01T02:44:11.576Z,1017.04
2017-08-01T02:45:13.445Z,1017.03
2017-08-01T02:46:15.313Z,1017.06
2017-08-01T02:47:17.180Z,1017.09
2017-08-01T02:48:31.369Z,1017.09
2017-08-01T02:49:33.235Z,1017.07
2017-08-01T02:50:35.107Z,1017.06
2017-08-01T02:51:36.999Z,1017.08
2017-08-01T02:52:38.807Z,1017.05
2017-08-01T02:53:40.612Z,1017.04
2017-08-01T02:54:42.491Z,1017.06
2017-08-01T02:55:44.358Z,1017.05
2017-08-01T02:56:46.229Z,1017.06
2017-08-01T02:58:00.398Z,1017.05
2017-08-01T02:59:02.283Z,1017.09
2017-08-01T03:00:04.152Z,1017.09
2017-08-01T03:01:06.029Z,1017.10
2017-08-01T03:02:07.865Z,1017.10
2017-08-01T03:03:09.695Z,1017.16
2017-08-01T03:04:11.567Z,1017.17
2017-08-01T03:05:13.459Z,1017.19
2017-08-01T03:06:15.335Z,1017.16
2017-08-01T03:07:29.496Z,1017.15
2017-08-01T03:08:31.370Z,1017.14
2017-08-01T03:09:33.260Z,1017.08
2017-08-01T03:10:35.135Z,1017.04
2017-08-01T03:11:36.968Z,1017.01
2017-08-01T03:12:38.777Z,1017.02
2017-08-01T03:13:40.667Z,1017.03
2017-08-01T03:14:42.534Z,1017.08
2017-08-01T03:15:44.406Z,1017.06
2017-08-01T03:16:58.545Z,1017.04
2017-08-01T03:18:00.420Z,1017.08
2017-08-01T03:19:02.315Z,1017.08
2017-08-01T03:20:04.190Z,1017.08
2017-08-01T03:21:06.025Z,1017.08
2017-08-01T03:22:07.854Z,1017.08
2017-08-01T03:23:09.724Z,1017.07
2017-08-01T03:24:11.636Z,1017.07
2017-08-01T03:25:13.505Z,1017.09
2017-08-01T03:26:27.664Z,1017.06
2017-08-01T03:27:29.549Z,1017.05
2017-08-01T03:28:31.428Z,1017.03
2017-08-01T03:29:33.321Z,1017.03
2017-08-01T03:30:35.157Z,1017.02
2017-08-01T03:31:36.967Z,1017.08
2017-08-01T03:32:38.838Z,1017.00
2017-08-01T03:33:40.735Z,1016.99
2017-08-01T03:34:42.607Z,1016.98
2017-08-01T03:35:56.745Z,1017.00
2017-08-01T03:36:58.622Z,1016.96
2017-08-01T03:38:00.520Z,1017.00
2017-08-01T03:39:02.417Z,1016.91
2017-08-01T03:40:04.249Z,1016.94
2017-08-01T03:41:06.057Z,1016.93
2017-08-01T03:42:07.934Z,1016.90
2017-08-01T03:43:09.834Z,1016.95
2017-08-01T03:44:11.730Z,1016.91
2017-08-01T03:45:25.875Z,1016.94
2017-08-01T03:46:27.771Z,1016.95
2017-08-01T03:47:29.687Z,1016.93
2017-08-01T03:48:31.583Z,1016.95
2017-08-01T03:49:33.425Z,1016.93
2017-08-01T03:50:35.258Z,1016.96
2017-08-01T03:51:37.155Z,1016.98
2017-08-01T03:52:39.030Z,1016.99
2017-08-01T03:53:40.908Z,1016.91
2017-08-01T03:54:55.051Z,1016.96
2017-08-01T03:55:56.922Z,1016.94
2017-08-01T03:56:58.797Z,1016.94
2017-08-01T03:58:00.721Z,1016.95
2017-08-01T03:59:02.524Z,1016.91
2017-08-01T04:00:04.332Z,1016.90
2017-08-01T04:01:06.216Z,1016.92
2017-08-01T04:02:08.108Z,1016.96
2017-08-01T04:03:10.006Z,1016.89
2017-08-01T04:04:24.150Z,1016.88
2017-08-01T04:05:26.017Z,1016.89
2017-08-01T04:06:27.891Z,1016.87
2017-08-01T04:07:29.790Z,1016.87
2017-08-01T04:08:31.627Z,1016.91
2017-08-01T04:09:33.435Z,1016.91
2017-08-01T04:10:35.315Z,1016.97
2017-08-01T04:11:37.191Z,1016.99
2017-08-01T04:12:39.083Z,1017.08
2017-08-01T04:13:53.239Z,1017.08
2017-08-01T04:14:55.134Z,1017.13
2017-08-01T04:15:57.032Z,1017.16
2017-08-01T04:16:58.902Z,1017.13
2017-08-01T04:18:00.724Z,1017.21
2017-08-01T04:19:02.538Z,1017.22
2017-08-01T04:20:04.437Z,1017.25
2017-08-01T04:21:06.338Z,1017.39
2017-08-01T04:22:08.235Z,1017.37
2017-08-01T04:23:22.398Z,1017.36
2017-08-01T04:24:24.276Z,1017.35
2017-08-01T04:25:26.153Z,1017.35
2017-08-01T04:26:28.053Z,1017.41
2017-08-01T04:27:29.892Z,1017.44
2017-08-01T04:28:31.710Z,1017.44
2017-08-01T04:29:33.583Z,1017.40
2017-08-01T04:30:35.490Z,1017.41
2017-08-01T04:31:37.393Z,1017.40
2017-08-01T04:32:51.541Z,1017.40
2017-08-01T04:33:53.410Z,1017.44
2017-08-01T04:34:55.286Z,1017.42
2017-08-01T04:35:57.187Z,1017.39
2017-08-01T04:36:59.030Z,1017.41
2017-08-01T04:38:00.845Z,1017.36
2017-08-01T04:39:02.721Z,1017.38
2017-08-01T04:40:04.623Z,1017.45
2017-08-01T04:41:06.522Z,1017.39
2017-08-01T04:42:20.671Z,1017.47
2017-08-01T04:43:22.550Z,1017.54
2017-08-01T04:44:24.452Z,1017.58
2017-08-01T04:45:26.352Z,1017.58
2017-08-01T04:46:28.194Z,1017.55
2017-08-01T04:47:30.032Z,1017.55
2017-08-01T04:48:31.935Z,1017.54
2017-08-01T04:49:33.840Z,1017.61
2017-08-01T04:50:35.712Z,1017.60
2017-08-01T04:51:49.865Z,1017.69
2017-08-01T04:52:51.741Z,1017.72
2017-08-01T04:53:53.618Z,1017.71
2017-08-01T04:54:55.522Z,1017.72
2017-08-01T04:55:57.361Z,1017.73
2017-08-01T04:56:59.176Z,1017.72
2017-08-01T04:58:01.056Z,1017.82
2017-08-01T04:59:02.957Z,1017.78
2017-08-01T05:00:04.827Z,1017.82
2017-08-01T05:01:18.985Z,1017.78
2017-08-01T05:02:20.883Z,1017.88
2017-08-01T05:03:22.759Z,1017.94
2017-08-01T05:04:24.635Z,1017.93
2017-08-01T05:05:26.453Z,1018.08
2017-08-01T05:06:28.275Z,1018.05
2017-08-01T05:07:30.176Z,1018.01
2017-08-01T05:08:32.050Z,1018.09
2017-08-01T05:09:33.934Z,1018.13
2017-08-01T05:10:48.084Z,1018.24
2017-08-01T05:11:49.990Z,1018.26
2017-08-01T05:12:51.889Z,1018.24
2017-08-01T05:13:53.785Z,1018.24
2017-08-01T05:14:55.630Z,1018.30
2017-08-01T05:15:57.470Z,1018.37
2017-08-01T05:16:59.353Z,1018.28
2017-08-01T05:18:01.259Z,1018.25
2017-08-01T05:19:03.161Z,1018.24
2017-08-01T05:20:17.312Z,1018.28
2017-08-01T05:21:19.196Z,1018.24
2017-08-01T05:22:21.057Z,1018.11
2017-08-01T05:23:22.957Z,1018.10
2017-08-01T05:24:24.802Z,1018.12
2017-08-01T05:25:26.642Z,1018.11
2017-08-01T05:26:28.538Z,1018.07
2017-08-01T05:27:30.417Z,1018.08
2017-08-01T05:28:32.299Z,1018.05
2017-08-01T05:29:46.472Z,1018.08
2017-08-01T05:30:48.344Z,1018.01
2017-08-01T05:31:50.220Z,1017.98
2017-08-01T05:32:52.119Z,1017.97
2017-08-01T05:33:53.940Z,1018.01
2017-08-01T05:34:55.778Z,1017.94
2017-08-01T05:35:57.660Z,1017.93
2017-08-01T05:36:59.563Z,1017.98
2017-08-01T05:38:01.440Z,1018.01
2017-08-01T05:39:15.592Z,1017.98
2017-08-01T05:40:17.491Z,1018.02
2017-08-01T05:41:19.370Z,1018.06
2017-08-01T05:42:21.250Z,1018.05
2017-08-01T05:43:23.091Z,1018.04
2017-08-01T05:44:24.905Z,1017.99
2017-08-01T05:45:26.806Z,1017.98
2017-08-01T05:46:28.703Z,1017.98
2017-08-01T05:47:30.586Z,1017.94
2017-08-01T05:48:44.763Z,1017.92
2017-08-01T05:49:46.657Z,1017.95
2017-08-01T05:50:48.538Z,1017.92
2017-08-01T05:51:50.439Z,1017.95
2017-08-01T05:52:52.280Z,1017.98
2017-08-01T05:53:54.098Z,1018.03
2017-08-01T05:54:55.974Z,1018.12
2017-08-01T05:55:57.851Z,1018.33
2017-08-01T05:56:59.750Z,1018.59
2017-08-01T05:58:13.900Z,1019.03
2017-08-01T05:59:15.773Z,1019.56
2017-08-01T06:00:17.655Z,1020.26
2017-08-01T06:01:19.550Z,1020.58
2017-08-01T06:02:21.366Z,1020.79
2017-08-01T06:03:23.178Z,1020.74
2017-08-01T06:04:25.058Z,1020.67
2017-08-01T06:05:26.955Z,1020.80
2017-08-01T06:06:28.829Z,1020.59
2017-08-01T06:07:42.980Z,1020.38
2017-08-01T06:08:44.855Z,1019.79
2017-08-01T06:09:46.751Z,1019.49
2017-08-01T06:10:48.625Z,1019.53
2017-08-01T06:11:50.439Z,1019.86
2017-08-01T06:12:52.258Z,1020.31
2017-08-01T06:13:54.160Z,1020.50
2017-08-01T06:14:56.057Z,1020.65
2017-08-01T06:15:57.953Z,1020.69
2017-08-01T06:17:12.107Z,1020.67
2017-08-01T06:18:13.981Z,1020.58
2017-08-01T06:19:15.885Z,1020.48
2017-08-01T06:20:17.759Z,1020.37
2017-08-01T06:21:19.572Z,1020.26
2017-08-01T06:22:21.388Z,1020.22
2017-08-01T06:23:23.286Z,1020.27
2017-08-01T06:24:25.164Z,1020.36
2017-08-01T06:25:27.044Z,1020.40
2017-08-01T06:26:41.197Z,1020.46
2017-08-01T06:27:43.065Z,1020.46
2017-08-01T06:28:44.944Z,1020.55
2017-08-01T06:29:46.845Z,1020.51
2017-08-01T06:30:48.660Z,1020.46
2017-08-01T06:31:50.470Z,1020.47
2017-08-01T06:32:52.341Z,1020.41
2017-08-01T06:33:54.221Z,1020.31
2017-08-01T06:34:56.107Z,1020.21
2017-08-01T06:36:10.261Z,1020.15
2017-08-01T06:37:12.137Z,1020.09
2017-08-01T06:38:14.038Z,1020.11
2017-08-01T06:39:15.948Z,1020.15
2017-08-01T06:40:17.778Z,1020.14
2017-08-01T06:41:19.610Z,1020.16
2017-08-01T06:42:21.489Z,1020.15
2017-08-01T06:43:23.391Z,1020.06
2017-08-01T06:44:25.264Z,1019.98
2017-08-01T06:45:39.414Z,1019.97
2017-08-01T06:46:41.308Z,1019.96
2017-08-01T06:47:43.187Z,1019.96
2017-08-01T06:48:45.089Z,1020.07
2017-08-01T06:49:46.928Z,1020.11
2017-08-01T06:50:48.739Z,1020.19
2017-08-01T06:51:50.621Z,1020.18
2017-08-01T06:52:52.496Z,1020.17
2017-08-01T06:53:54.376Z,1020.21
2017-08-01T06:55:08.520Z,1020.09
2017-08-01T06:56:10.396Z,1020.08
2017-08-01T06:57:12.270Z,1020.06
2017-08-01T06:58:14.173Z,1020.05
2017-08-01T06:59:16.012Z,1020.04
2017-08-01T07:00:17.828Z,1020.05
2017-08-01T07:01:19.710Z,1020.07
2017-08-01T07:02:21.578Z,1020.10
2017-08-01T07:03:23.474Z,1020.16
2017-08-01T07:04:37.605Z,1020.14
2017-08-01T07:05:39.441Z,1020.14
2017-08-01T07:06:41.323Z,1020.13
2017-08-01T07:07:43.223Z,1020.08
2017-08-01T07:08:45.103Z,1020.03
2017-08-01T07:09:46.935Z,1020.05
2017-08-01T07:10:48.752Z,1020.04
2017-08-01T07:11:50.631Z,1020.02
2017-08-01T07:12:52.512Z,1020.06
2017-08-01T07:14:06.718Z,1020.02
2017-08-01T07:15:08.596Z,1019.99
2017-08-01T07:16:10.510Z,1020.01
2017-08-01T07:17:12.389Z,1019.92
2017-08-01T07:18:14.208Z,1019.96
2017-08-01T07:19:16.025Z,1019.99
2017-08-01T07:20:17.922Z,1020.04
2017-08-01T07:21:19.799Z,1020.12
2017-08-01T07:22:21.680Z,1020.15
2017-08-01T07:23:35.876Z,1020.19
2017-08-01T07:24:37.755Z,1020.24
2017-08-01T07:25:39.659Z,1020.24
2017-08-01T07:26:41.534Z,1020.31
2017-08-01T07:27:43.375Z,1020.22
2017-08-01T07:28:45.192Z,1020.21
2017-08-01T07:29:47.093Z,1020.13
2017-08-01T07:30:48.970Z,1020.09
2017-08-01T07:31:50.845Z,1020.06
2017-08-01T07:33:05.045Z,1020.14
2017-08-01T07:34:06.959Z,1020.23
2017-08-01T07:35:08.849Z,1020.23
2017-08-01T07:36:10.752Z,1020.34
2017-08-01T07:37:12.591Z,1020.29
2017-08-01T07:38:14.404Z,1020.32
2017-08-01T07:39:16.286Z,1020.32
2017-08-01T07:40:18.166Z,1020.35
2017-08-01T07:41:20.067Z,1020.40
2017-08-01T07:42:34.238Z,1020.44
2017-08-01T07:43:36.110Z,1020.54
2017-08-01T07:44:37.991Z,1020.63
2017-08-01T07:45:39.906Z,1020.58
2017-08-01T07:46:41.749Z,1020.50
2017-08-01T07:47:43.585Z,1020.47
2017-08-01T07:48:45.482Z,1020.43
2017-08-01T07:49:47.368Z,1020.39
2017-08-01T07:50:49.271Z,1020.40
2017-08-01T07:52:03.443Z,1020.39
2017-08-01T07:53:05.319Z,1020.39
2017-08-01T07:54:07.194Z,1020.38
2017-08-01T07:55:09.095Z,1020.38
2017-08-01T07:56:10.907Z,1020.41
2017-08-01T07:57:12.725Z,1020.41
2017-08-01T07:58:14.605Z,1020.44
2017-08-01T07:59:16.501Z,1020.47
2017-08-01T08:00:18.396Z,1020.52
2017-08-01T08:01:32.566Z,1020.52
2017-08-01T08:02:34.464Z,1020.51
2017-08-01T08:03:36.340Z,1020.64
2017-08-01T08:04:38.223Z,1020.61
2017-08-01T08:05:40.063Z,1020.67
2017-08-01T08:06:41.900Z,1020.68
2017-08-01T08:07:43.801Z,1020.66
2017-08-01T08:08:45.702Z,1020.63
2017-08-01T08:09:47.600Z,1020.69
2017-08-01T08:11:01.751Z,1020.63
2017-08-01T08:12:03.626Z,1020.67
2017-08-01T08:13:05.500Z,1020.62
2017-08-01T08:14:07.373Z,1020.63
2017-08-01T08:15:09.198Z,1020.56
2017-08-01T08:16:11.035Z,1020.58
2017-08-01T08:17:12.910Z,1020.52
2017-08-01T08:18:14.841Z,1020.51
2017-08-01T08:19:16.713Z,1020.43
2017-08-01T08:20:30.862Z,1020.38
2017-08-01T08:21:32.742Z,1020.37
2017-08-01T08:22:34.618Z,1020.32
2017-08-01T08:23:36.528Z,1020.32
2017-08-01T08:24:38.354Z,1020.27
2017-08-01T08:25:40.198Z,1020.30
2017-08-01T08:26:42.077Z,1020.26
2017-08-01T08:27:43.956Z,1020.17
2017-08-01T08:28:45.857Z,1020.17
2017-08-01T08:30:00.012Z,1020.19
2017-08-01T08:31:01.914Z,1020.17
2017-08-01T08:32:03.814Z,1020.19
2017-08-01T08:33:05.710Z,1020.20
2017-08-01T08:34:07.526Z,1020.17
2017-08-01T08:35:09.345Z,1020.20
2017-08-01T08:36:11.239Z,1020.13
2017-08-01T08:37:13.143Z,1020.12
2017-08-01T08:38:15.047Z,1020.10
2017-08-01T08:39:29.214Z,1020.04
2017-08-01T08:40:31.094Z,1020.01
2017-08-01T08:41:32.966Z,1019.96
2017-08-01T08:42:34.842Z,1019.95
2017-08-01T08:43:36.690Z,1019.95
2017-08-01T08:44:38.521Z,1019.97
2017-08-01T08:45:40.429Z,1019.86
2017-08-01T08:46:42.331Z,1019.91
2017-08-01T08:47:44.231Z,1019.86
2017-08-01T08:48:58.386Z,1019.89
2017-08-01T08:50:00.285Z,1019.82
2017-08-01T08:51:02.191Z,1019.80
2017-08-01T08:52:04.085Z,1019.82
2017-08-01T08:53:05.904Z,1019.82
2017-08-01T08:54:07.743Z,1019.78
2017-08-01T08:55:09.600Z,1019.73
2017-08-01T08:56:11.420Z,1019.73
2017-08-01T08:57:13.262Z,1019.66
2017-08-01T08:58:27.433Z,1019.58
2017-08-01T08:59:29.306Z,1019.56
2017-08-01T09:00:31.182Z,1019.55
2017-08-01T09:01:33.065Z,1019.51
2017-08-01T09:02:34.880Z,1019.49
2017-08-01T09:03:36.718Z,1019.45
2017-08-01T09:04:38.593Z,1019.41
2017-08-01T09:05:40.469Z,1019.41
2017-08-01T09:06:42.349Z,1019.40
2017-08-01T09:07:56.497Z,1019.40
2017-08-01T09:08:58.353Z,1019.35
2017-08-01T09:10:00.272Z,1019.37
2017-08-01T09:11:02.172Z,1019.36
2017-08-01T09:12:04.012Z,1019.41
2017-08-01T09:13:05.832Z,1019.41
2017-08-01T09:14:07.730Z,1019.37
2017-08-01T09:15:09.612Z,1019.35
2017-08-01T09:16:11.515Z,1019.34
2017-08-01T09:17:25.689Z,1019.35
2017-08-01T09:18:27.565Z,1019.36
2017-08-01T09:19:29.442Z,1019.43
2017-08-01T09:20:31.320Z,1019.39
2017-08-01T09:21:33.194Z,1019.43
2017-08-01T09:22:34.995Z,1019.41
2017-08-01T09:23:36.912Z,1019.43
2017-08-01T09:24:38.841Z,1019.42
2017-08-01T09:25:40.735Z,1019.42
2017-08-01T09:26:54.907Z,1019.38
2017-08-01T09:27:56.780Z,1019.34
2017-08-01T09:28:58.655Z,1019.29
2017-08-01T09:30:00.529Z,1019.29
2017-08-01T09:31:02.375Z,1019.30
2017-08-01T09:32:04.220Z,1019.31
2017-08-01T09:33:06.127Z,1019.31
2017-08-01T09:34:08.040Z,1019.32
2017-08-01T09:35:09.941Z,1019.32
2017-08-01T09:36:24.150Z,1019.34
2017-08-01T09:37:26.083Z,1019.38
2017-08-01T09:38:28.046Z,1019.43
2017-08-01T09:39:30.190Z,1019.41
2017-08-01T09:40:32.059Z,1019.45
2017-08-01T09:41:33.878Z,1019.46
2017-08-01T09:42:35.771Z,1019.42
2017-08-01T09:43:37.699Z,1019.38
2017-08-01T09:44:39.619Z,1019.39
2017-08-01T09:45:53.821Z,1019.39
2017-08-01T09:46:55.719Z,1019.33
2017-08-01T09:47:57.633Z,1019.25
2017-08-01T09:48:59.526Z,1019.24
2017-08-01T09:50:01.363Z,1019.20
2017-08-01T09:51:03.224Z,1019.16
2017-08-01T09:52:05.165Z,1019.14
2017-08-01T09:53:07.142Z,1019.12
2017-08-01T09:54:09.149Z,1019.08
2017-08-01T09:55:23.316Z,1019.17
2017-08-01T09:56:25.255Z,1019.12
2017-08-01T09:57:27.253Z,1019.12
2017-08-01T09:58:29.188Z,1019.07
2017-08-01T09:59:31.210Z,1019.05
2017-08-01T10:00:33.065Z,1019.02
2017-08-01T10:01:34.997Z,1018.99
2017-08-01T10:02:36.908Z,1018.95
2017-08-01T10:03:38.720Z,1018.90
2017-08-01T10:04:52.962Z,1018.89
2017-08-01T10:05:54.873Z,1018.84
2017-08-01T10:06:56.772Z,1018.81
2017-08-01T10:07:58.656Z,1018.78
2017-08-01T10:09:00.497Z,1018.66
2017-08-01T10:10:02.318Z,1018.64
2017-08-01T10:11:04.229Z,1018.63
2017-08-01T10:12:06.153Z,1018.62
2017-08-01T10:13:08.087Z,1018.62
2017-08-01T10:14:22.282Z,1018.57
2017-08-01T10:15:24.193Z,1018.57
2017-08-01T10:16:26.095Z,1018.64
2017-08-01T10:17:28.007Z,1018.59
2017-08-01T10:18:29.872Z,1018.61
2017-08-01T10:19:31.776Z,1018.61
2017-08-01T10:20:33.749Z,1018.58
2017-08-01T10:21:35.679Z,1018.60
2017-08-01T10:22:37.620Z,1018.55
2017-08-01T10:23:51.834Z,1018.55
2017-08-01T10:24:53.708Z,1018.55
2017-08-01T10:25:55.608Z,1018.57
2017-08-01T10:26:57.510Z,1018.54
2017-08-01T10:27:59.335Z,1018.57
2017-08-01T10:29:01.172Z,1018.58
2017-08-01T10:30:03.074Z,1018.61
2017-08-01T10:31:04.977Z,1018.59
2017-08-01T10:32:06.858Z,1018.55
2017-08-01T10:33:21.078Z,1018.56
2017-08-01T10:34:22.954Z,1018.52
2017-08-01T10:35:24.837Z,1018.52
2017-08-01T10:36:26.719Z,1018.49
2017-08-01T10:37:28.562Z,1018.41
2017-08-01T10:38:30.407Z,1018.41
2017-08-01T10:39:32.280Z,1018.43
2017-08-01T10:40:34.181Z,1018.42
2017-08-01T10:41:36.062Z,1018.40
2017-08-01T10:42:50.238Z,1018.44
2017-08-01T10:43:52.136Z,1018.44
2017-08-01T10:44:54.020Z,1018.42
2017-08-01T10:45:55.900Z,1018.40
2017-08-01T10:46:57.740Z,1018.41
2017-08-01T10:47:59.575Z,1018.43
2017-08-01T10:49:01.462Z,1018.40
2017-08-01T10:50:03.365Z,1018.38
2017-08-01T10:51:05.249Z,1018.44
2017-08-01T10:52:19.427Z,1018.40
2017-08-01T10:53:21.304Z,1018.39
2017-08-01T10:54:23.206Z,1018.37
2017-08-01T10:55:25.114Z,1018.36
2017-08-01T10:56:26.961Z,1018.36
2017-08-01T10:57:28.795Z,1018.32
2017-08-01T10:58:30.676Z,1018.30
2017-08-01T10:59:32.579Z,1018.31
2017-08-01T11:00:34.456Z,1018.32
2017-08-01T11:01:48.608Z,1018.31
2017-08-01T11:02:50.481Z,1018.31
2017-08-01T11:03:52.362Z,1018.33
2017-08-01T11:04:54.266Z,1018.31
2017-08-01T11:05:56.115Z,1018.29
2017-08-01T11:06:57.967Z,1018.29
2017-08-01T11:07:59.841Z,1018.24
2017-08-01T11:09:01.748Z,1018.23
2017-08-01T11:10:03.621Z,1018.23
2017-08-01T11:11:17.771Z,1018.25
2017-08-01T11:12:19.649Z,1018.20
2017-08-01T11:13:21.552Z,1018.22
2017-08-01T11:14:23.457Z,1018.17
2017-08-01T11:15:25.303Z,1018.16
2017-08-01T11:16:27.118Z,1018.18
2017-08-01T11:17:28.933Z,1018.13
2017-08-01T11:18:30.752Z,1018.14
2017-08-01T11:19:32.592Z,1018.12
2017-08-01T11:20:46.770Z,1018.09
2017-08-01T11:21:48.664Z,1018.04
2017-08-01T11:22:50.570Z,1018.06
2017-08-01T11:23:52.448Z,1018.07
2017-08-01T11:24:54.269Z,1018.03
2017-08-01T11:25:56.109Z,1018.02
2017-08-01T11:26:58.044Z,1018.02
2017-08-01T11:27:59.922Z,1018.02
2017-08-01T11:29:01.803Z,1018.02
2017-08-01T11:30:15.988Z,1017.99
2017-08-01T11:31:17.901Z,1018.02
2017-08-01T11:32:19.797Z,1018.01
2017-08-01T11:33:21.699Z,1017.95
2017-08-01T11:34:23.524Z,1017.94
2017-08-01T11:35:25.377Z,1017.98
2017-08-01T11:36:27.275Z,1017.93
2017-08-01T11:37:29.166Z,1017.91
2017-08-01T11:38:31.050Z,1017.87
2017-08-01T11:39:45.232Z,1017.83
2017-08-01T11:40:47.157Z,1017.80
2017-08-01T11:41:49.032Z,1017.81
2017-08-01T11:42:50.930Z,1017.79
2017-08-01T11:43:52.756Z,1017.79
2017-08-01T11:44:54.597Z,1017.77
2017-08-01T11:45:56.501Z,1017.79
2017-08-01T11:46:58.363Z,1017.77
2017-08-01T11:48:00.257Z,1017.77
2017-08-01T11:49:14.405Z,1017.70
2017-08-01T11:50:16.285Z,1017.70
2017-08-01T11:51:18.589Z,1017.67
2017-08-01T11:52:20.552Z,1017.65
2017-08-01T11:53:22.395Z,1017.60
2017-08-01T11:54:24.231Z,1017.60
2017-08-01T11:55:26.115Z,1017.59
2017-08-01T11:56:28.024Z,1017.56
2017-08-01T11:57:29.919Z,1017.54
2017-08-01T11:58:44.082Z,1017.54
2017-08-01T11:59:45.979Z,1017.56
2017-08-01T12:00:47.860Z,1017.60
2017-08-01T12:01:49.739Z,1017.59
2017-08-01T12:02:51.581Z,1017.60
2017-08-01T12:03:53.422Z,1017.58
2017-08-01T12:04:55.323Z,1017.60
2017-08-01T12:05:57.230Z,1017.62
2017-08-01T12:06:59.141Z,1017.61
2017-08-01T12:08:13.407Z,1017.67
2017-08-01T12:09:15.289Z,1017.64
2017-08-01T12:10:17.167Z,1017.63
2017-08-01T12:11:19.071Z,1017.61
2017-08-01T12:12:20.923Z,1017.59
2017-08-01T12:13:22.763Z,1017.60
2017-08-01T12:14:24.640Z,1017.60
2017-08-01T12:15:26.546Z,1017.61
2017-08-01T12:16:28.445Z,1017.59
2017-08-01T12:17:42.604Z,1017.55
2017-08-01T12:18:44.505Z,1017.52
2017-08-01T12:19:46.385Z,1017.44
2017-08-01T12:20:48.264Z,1017.51
2017-08-01T12:21:50.122Z,1017.56
2017-08-01T12:22:51.968Z,1017.48
2017-08-01T12:23:53.874Z,1017.48
2017-08-01T12:24:55.756Z,1017.50
2017-08-01T12:25:57.649Z,1017.48
2017-08-01T12:27:11.855Z,1017.46
2017-08-01T12:28:13.742Z,1017.45
2017-08-01T12:29:15.616Z,1017.49
2017-08-01T12:30:17.502Z,1017.48
2017-08-01T12:31:19.481Z,1017.47
2017-08-01T12:32:21.268Z,1017.43
2017-08-01T12:33:23.174Z,1017.45
2017-08-01T12:34:25.081Z,1017.51
2017-08-01T12:35:26.981Z,1017.51
2017-08-01T12:36:41.158Z,1017.56
2017-08-01T12:37:43.033Z,1017.53
2017-08-01T12:38:44.916Z,1017.48
2017-08-01T12:39:46.824Z,1017.42
2017-08-01T12:40:48.712Z,1017.41
2017-08-01T12:41:50.605Z,1017.48
2017-08-01T12:42:52.504Z,1017.48
2017-08-01T12:43:54.390Z,1017.45
2017-08-01T12:44:56.290Z,1017.42